createdAt,value
2018-05-07T00:00:23.015Z,99.90
2018-05-07T00:02:51.754Z,99.90
2018-05-07T00:05:20.515Z,99.90
2018-05-07T00:07:50.894Z,99.90
2018-05-07T00:10:19.595Z,99.90
2018-05-07T00:12:48.324Z,99.90
2018-05-07T00:15:18.509Z,99.90
2018-05-07T00:17:47.514Z,99.90
2018-05-07T00:20:16.256Z,99.90
2018-05-07T00:22:45.003Z,99.90
2018-05-07T00:25:13.734Z,99.90
2018-05-07T00:27:42.437Z,99.90
2018-05-07T00:30:11.177Z,99.90
2018-05-07T00:32:40.683Z,99.90
2018-05-07T00:35:10.176Z,99.90
2018-05-07T00:37:38.701Z,99.90
2018-05-07T00:40:07.505Z,99.90
2018-05-07T00:42:37.156Z,99.90
2018-05-07T00:45:06.093Z,99.90
2018-05-07T00:47:34.916Z,99.90
2018-05-07T00:50:03.335Z,99.90
2018-05-07T00:52:32.186Z,99.90
2018-05-07T00:55:11.932Z,99.90
2018-05-07T00:57:40.678Z,99.90
2018-05-07T01:00:09.061Z,99.90
2018-05-07T01:02:38.491Z,99.90
2018-05-07T01:05:07.405Z,99.90
2018-05-07T01:07:36.681Z,99.90
2018-05-07T01:10:05.806Z,99.90
2018-05-07T01:12:34.231Z,99.90
2018-05-07T01:15:03.000Z,99.90
2018-05-07T01:17:32.519Z,99.90
2018-05-07T01:20:01.296Z,99.90
2018-05-07T01:22:30.853Z,99.90
2018-05-07T01:24:59.280Z,99.90
2018-05-07T01:27:28.042Z,99.90
2018-05-07T01:29:57.558Z,99.90
2018-05-07T01:32:26.296Z,99.90
2018-05-07T01:34:56.522Z,99.90
2018-05-07T01:37:25.275Z,99.90
2018-05-07T01:39:54.785Z,99.90
2018-05-07T01:42:23.967Z,99.90
2018-05-07T01:44:52.700Z,99.90
2018-05-07T01:47:21.458Z,99.90
2018-05-07T01:49:50.207Z,99.90
2018-05-07T01:52:18.927Z,99.90
2018-05-07T01:54:47.675Z,99.90
2018-05-07T01:57:16.399Z,99.90
2018-05-07T01:59:45.181Z,99.90
2018-05-07T02:02:13.903Z,99.90
2018-05-07T02:04:43.417Z,99.90
2018-05-07T02:07:12.208Z,99.90
2018-05-07T02:09:40.951Z,99.90
2018-05-07T02:12:09.758Z,99.90
2018-05-07T02:14:38.467Z,99.90
2018-05-07T02:17:07.243Z,99.90
2018-05-07T02:19:36.755Z,99.90
2018-05-07T02:22:06.276Z,99.90
2018-05-07T02:24:35.048Z,99.90
2018-05-07T02:27:04.405Z,99.90
2018-05-07T02:29:33.160Z,99.90
2018-05-07T02:32:01.896Z,99.90
2018-05-07T02:34:30.655Z,99.90
2018-05-07T02:37:02.219Z,99.90
2018-05-07T02:39:30.992Z,99.90
2018-05-07T02:41:59.769Z,99.90
2018-05-07T02:47:02.110Z,99.90
2018-05-07T02:49:31.604Z,99.90
2018-05-07T02:52:00.374Z,99.90
2018-05-07T02:54:30.357Z,99.90
2018-05-07T02:56:59.788Z,99.90
2018-05-07T02:59:29.299Z,99.90
2018-05-07T03:01:58.100Z,99.90
2018-05-07T03:04:26.851Z,99.90
2018-05-07T03:06:54.975Z,99.90
2018-05-07T03:09:23.768Z,99.90
2018-05-07T03:11:52.530Z,99.90
2018-05-07T03:14:21.297Z,99.90
2018-05-07T03:16:50.825Z,99.90
2018-05-07T03:19:19.547Z,99.90
2018-05-07T03:21:48.399Z,99.90
2018-05-07T03:24:17.140Z,99.90
2018-05-07T03:26:46.653Z,99.90
2018-05-07T03:29:16.199Z,99.90
2018-05-07T03:31:45.721Z,99.90
2018-05-07T03:34:15.173Z,99.90
2018-05-07T03:36:44.713Z,99.90
2018-05-07T03:39:14.046Z,99.90
2018-05-07T03:41:42.837Z,99.90
2018-05-07T03:44:12.667Z,99.90
2018-05-07T03:46:41.474Z,99.90
2018-05-07T03:49:11.047Z,99.90
2018-05-07T03:51:39.150Z,99.90
2018-05-07T03:54:08.643Z,99.90
2018-05-07T03:56:37.407Z,99.90
2018-05-07T03:59:06.144Z,99.90
2018-05-07T04:01:36.331Z,99.90
2018-05-07T04:04:05.086Z,99.90
2018-05-07T04:06:33.913Z,99.90
2018-05-07T04:09:02.646Z,99.90
2018-05-07T04:11:31.409Z,99.90
2018-05-07T04:14:00.129Z,99.90
2018-05-07T04:16:40.080Z,99.90
2018-05-07T04:19:19.912Z,99.90
2018-05-07T04:22:01.203Z,99.90
2018-05-07T04:24:29.979Z,99.90
2018-05-07T04:26:59.492Z,99.90
2018-05-07T04:29:28.456Z,99.90
2018-05-07T04:31:57.233Z,99.90
2018-05-07T04:34:26.708Z,99.90
2018-05-07T04:36:55.455Z,99.90
2018-05-07T04:39:24.977Z,99.90
2018-05-07T04:41:54.462Z,99.90
2018-05-07T04:44:23.960Z,99.90
2018-05-07T04:46:52.731Z,99.90
2018-05-07T04:49:21.805Z,99.90
2018-05-07T04:51:50.580Z,99.90
2018-05-07T04:54:20.162Z,99.90
2018-05-07T04:56:49.731Z,99.90
2018-05-07T04:59:18.449Z,99.90
2018-05-07T05:01:46.969Z,99.90
2018-05-07T06:27:44.467Z,99.90
2018-05-07T06:30:18.196Z,99.90
2018-05-07T06:33:08.573Z,99.90
2018-05-07T06:38:14.917Z,99.90
2018-05-07T06:40:52.405Z,99.90
2018-05-07T06:43:29.729Z,99.90
2018-05-07T06:46:04.996Z,99.90
2018-05-07T06:48:39.194Z,99.90
2018-05-07T06:51:13.941Z,99.90
2018-05-07T06:53:49.126Z,99.90
2018-05-07T06:56:27.983Z,99.90
2018-05-07T06:59:00.554Z,99.90
2018-05-07T07:01:38.524Z,99.90
2018-05-07T07:04:19.876Z,99.90
2018-05-07T07:12:28.928Z,99.90
2018-05-07T07:17:42.198Z,99.30
2018-05-07T07:20:14.854Z,99.30
2018-05-07T07:22:45.226Z,99.30
2018-05-07T07:25:16.524Z,99.90
2018-05-07T07:27:47.918Z,99.20
2018-05-07T07:33:12.313Z,98.20
2018-05-07T07:35:45.534Z,97.50
2018-05-07T07:38:14.345Z,97.40
2018-05-07T07:40:45.255Z,96.60
2018-05-07T07:43:14.670Z,96.40
2018-05-07T07:45:45.334Z,95.70
2018-05-07T07:48:15.191Z,95.10
2018-05-07T07:50:45.537Z,95.00
2018-05-07T07:53:15.381Z,94.60
2018-05-07T07:55:44.209Z,94.30
2018-05-07T07:58:15.285Z,92.90
2018-05-07T08:00:45.136Z,92.80
2018-05-07T08:03:13.668Z,91.70
2018-05-07T08:05:42.657Z,91.40
2018-05-07T08:08:11.473Z,91.00
2018-05-07T08:10:40.340Z,86.70
2018-05-07T08:13:10.105Z,86.80
2018-05-07T08:15:39.607Z,86.20
2018-05-07T08:18:09.276Z,84.00
2018-05-07T08:20:39.412Z,81.50
2018-05-07T08:23:11.658Z,79.70
2018-05-07T08:25:40.443Z,79.00
2018-05-07T08:28:10.295Z,72.40
2018-05-07T08:30:41.022Z,72.30
2018-05-07T08:33:10.704Z,71.60
2018-05-07T08:35:39.514Z,69.20
2018-05-07T08:38:11.350Z,66.40
2018-05-07T08:40:41.926Z,64.60
2018-05-07T08:43:12.377Z,64.50
2018-05-07T08:45:42.429Z,61.20
2018-05-07T08:48:12.511Z,59.80
2018-05-07T08:50:41.721Z,59.70
2018-05-07T08:53:10.471Z,59.70
2018-05-07T08:55:41.521Z,57.60
2018-05-07T08:58:10.957Z,56.80
2018-05-07T09:00:40.799Z,56.80
2018-05-07T09:03:09.568Z,56.10
2018-05-07T09:05:38.383Z,56.00
2018-05-07T09:08:07.209Z,55.70
2018-05-07T09:10:37.954Z,54.30
2018-05-07T09:13:07.352Z,54.90
2018-05-07T10:31:35.258Z,54.50
2018-05-07T10:34:04.090Z,47.10
2018-05-07T10:36:34.483Z,45.20
2018-05-07T10:39:03.242Z,45.20
2018-05-07T10:41:31.712Z,45.80
2018-05-07T10:44:00.561Z,45.70
2018-05-07T10:46:29.117Z,45.60
2018-05-07T10:48:57.838Z,43.50
2018-05-07T10:51:27.038Z,44.50
2018-05-07T10:53:59.633Z,44.70
2018-05-07T10:56:28.138Z,44.10
2018-05-07T10:58:56.949Z,43.70
2018-05-07T11:01:25.448Z,44.10
2018-05-07T11:03:54.188Z,42.80
2018-05-07T11:06:22.692Z,43.00
2018-05-07T11:08:51.198Z,43.10
2018-05-07T11:11:21.352Z,42.50
2018-05-07T11:13:49.821Z,42.50
2018-05-07T11:16:21.721Z,42.60
2018-05-07T11:18:50.203Z,42.30
2018-05-07T11:21:18.766Z,42.60
2018-05-07T11:23:47.771Z,42.50
2018-05-07T11:26:16.267Z,42.60
2018-05-07T11:28:45.166Z,42.40
2018-05-07T11:31:14.175Z,41.60
2018-05-07T11:33:44.037Z,40.90
2018-05-07T11:36:12.333Z,40.90
2018-05-07T11:38:40.798Z,40.10
2018-05-07T11:41:09.303Z,40.10
2018-05-07T11:43:37.776Z,38.80
2018-05-07T11:46:06.261Z,39.20
2018-05-07T11:48:34.740Z,38.30
2018-05-07T11:51:02.974Z,38.70
2018-05-07T11:53:32.229Z,39.20
2018-05-07T11:56:00.944Z,39.10
2018-05-07T11:58:29.411Z,37.10
2018-05-07T12:00:57.920Z,37.70
2018-05-07T12:03:28.621Z,36.30
2018-05-07T12:05:57.918Z,36.30
2018-05-07T12:08:26.381Z,37.00
2018-05-07T12:10:54.876Z,36.80
2018-05-07T12:13:23.752Z,36.80
2018-05-07T12:15:52.386Z,36.80
2018-05-07T12:18:20.967Z,36.20
2018-05-07T12:20:50.134Z,36.50
2018-05-07T12:23:20.746Z,36.50
2018-05-07T12:25:49.380Z,36.50
2018-05-07T12:28:17.871Z,36.30
2018-05-07T12:30:47.217Z,36.60
2018-05-07T12:33:15.722Z,36.40
2018-05-07T12:35:44.768Z,35.50
2018-05-07T12:38:14.137Z,35.70
2018-05-07T12:40:42.667Z,35.50
2018-05-07T12:43:11.146Z,35.70
2018-05-07T12:45:39.651Z,35.10
2018-05-07T12:48:08.214Z,35.10
2018-05-07T12:50:36.751Z,34.70
2018-05-07T12:55:40.338Z,35.10
2018-05-07T12:58:08.785Z,34.90
2018-05-07T13:00:44.759Z,34.10
2018-05-07T13:03:13.887Z,34.00
2018-05-07T13:05:43.567Z,34.20
2018-05-07T13:08:11.851Z,34.90
2018-05-07T13:10:40.118Z,34.80
2018-05-07T13:13:08.707Z,34.70
2018-05-07T13:15:37.303Z,34.00
2018-05-07T13:18:05.541Z,34.50
2018-05-07T13:20:34.818Z,34.90
2018-05-07T13:23:03.315Z,35.30
2018-05-07T13:25:33.358Z,34.80
2018-05-07T13:28:01.907Z,34.50
2018-05-07T13:30:31.434Z,34.70
2018-05-07T13:33:04.936Z,32.20
2018-05-07T13:35:52.157Z,32.10
2018-05-07T13:38:21.652Z,30.40
2018-05-07T13:43:29.611Z,32.40
2018-05-07T13:46:02.673Z,32.20
2018-05-07T13:51:06.416Z,30.40
2018-05-07T13:53:35.934Z,30.90
2018-05-07T13:56:04.983Z,30.90
2018-05-07T13:58:33.809Z,31.30
2018-05-07T14:01:02.351Z,31.30
2018-05-07T14:03:31.318Z,32.60
2018-05-07T14:05:59.850Z,30.90
2018-05-07T14:08:30.089Z,31.20
2018-05-07T14:10:59.035Z,31.10
2018-05-07T14:13:30.003Z,32.00
2018-05-07T14:15:59.426Z,33.00
2018-05-07T14:18:27.961Z,32.90
2018-05-07T14:20:56.501Z,31.70
2018-05-07T14:23:25.845Z,31.20
2018-05-07T14:25:59.837Z,31.30
2018-05-07T14:28:29.535Z,31.30
2018-05-07T14:30:58.845Z,32.00
2018-05-07T14:33:34.866Z,31.50
2018-05-07T14:36:10.230Z,31.20
2018-05-07T14:38:38.730Z,31.30
2018-05-07T14:41:10.986Z,30.50
2018-05-07T14:43:40.926Z,30.40
2018-05-07T14:46:09.507Z,30.70
2018-05-07T14:48:38.260Z,31.20
2018-05-07T14:51:08.427Z,31.00
2018-05-07T14:53:36.921Z,31.70
2018-05-07T14:56:06.913Z,32.30
2018-05-07T14:58:35.698Z,32.60
2018-05-07T15:01:08.319Z,33.10
2018-05-07T15:03:45.079Z,33.00
2018-05-07T15:06:14.938Z,33.60
2018-05-07T15:08:44.304Z,32.30
2018-05-07T15:11:13.755Z,32.80
2018-05-07T15:13:44.040Z,32.90
2018-05-07T15:16:12.507Z,33.30
2018-05-07T15:18:40.688Z,32.70
2018-05-07T15:21:09.177Z,33.80
2018-05-07T15:23:38.389Z,34.10
2018-05-07T15:26:07.297Z,34.70
2018-05-07T15:28:36.607Z,35.00
2018-05-07T15:31:05.880Z,35.10
2018-05-07T15:33:34.375Z,35.00
2018-05-07T15:36:03.635Z,34.90
2018-05-07T15:38:33.450Z,35.50
2018-05-07T15:41:02.014Z,35.50
2018-05-07T15:43:30.277Z,35.90
2018-05-07T15:46:06.205Z,36.40
2018-05-07T15:48:38.714Z,36.80
2018-05-07T15:51:08.960Z,36.70
2018-05-07T15:53:38.402Z,36.70
2018-05-07T15:56:08.453Z,37.60
2018-05-07T15:58:37.712Z,36.70
2018-05-07T16:01:09.475Z,36.80
2018-05-07T16:03:38.681Z,37.30
2018-05-07T16:06:06.920Z,37.00
2018-05-07T16:08:36.287Z,37.30
2018-05-07T16:11:12.261Z,37.10
2018-05-07T16:13:40.658Z,37.70
2018-05-07T16:16:15.768Z,37.10
2018-05-07T16:18:44.733Z,37.50
2018-05-07T16:21:14.329Z,38.40
2018-05-07T16:23:44.022Z,37.90
2018-05-07T16:26:14.235Z,38.30
2018-05-07T16:31:36.565Z,38.50
2018-05-07T16:34:05.000Z,38.20
2018-05-07T16:42:41.389Z,38.40
2018-05-07T16:45:10.055Z,39.00
2018-05-07T16:47:38.223Z,39.30
2018-05-07T16:58:46.206Z,40.00
2018-05-07T17:01:14.721Z,40.60
2018-05-07T17:03:51.095Z,40.80
2018-05-07T17:06:26.639Z,40.80
2018-05-07T17:15:03.836Z,41.50
2018-05-07T17:17:39.717Z,41.40
2018-05-07T17:20:08.874Z,41.40
2018-05-07T17:22:37.350Z,42.10
2018-05-07T17:25:06.661Z,41.50
2018-05-07T17:27:36.108Z,41.50
2018-05-07T17:30:05.429Z,41.40
2018-05-07T17:32:34.715Z,41.70
2018-05-07T17:35:03.885Z,42.30
2018-05-07T17:37:33.840Z,42.20
2018-05-07T17:40:02.097Z,42.30
2018-05-07T17:42:30.572Z,42.20
2018-05-07T17:44:58.341Z,42.50
2018-05-07T17:47:38.067Z,42.80
2018-05-07T17:50:07.595Z,43.10
2018-05-07T17:52:36.049Z,43.00
2018-05-07T17:55:04.485Z,43.10
2018-05-07T17:57:34.986Z,43.20
2018-05-07T18:00:03.144Z,43.20
2018-05-07T18:02:32.760Z,43.70
2018-05-07T18:05:02.257Z,43.90
2018-05-07T18:07:31.104Z,44.30
2018-05-07T18:10:00.608Z,44.20
2018-05-07T18:12:29.737Z,44.40
2018-05-07T18:17:49.736Z,45.00
2018-05-07T18:20:26.893Z,44.90
2018-05-07T18:22:55.641Z,45.00
2018-05-07T18:28:42.753Z,46.20
2018-05-07T18:31:17.578Z,46.20
2018-05-07T18:33:50.367Z,46.20
2018-05-07T18:36:19.975Z,47.40
2018-05-07T18:38:52.583Z,46.80
2018-05-07T18:41:38.571Z,47.20
2018-05-07T18:44:08.831Z,47.50
2018-05-07T18:46:39.134Z,47.70
2018-05-07T18:49:09.028Z,48.10
2018-05-07T18:51:38.528Z,48.40
2018-05-07T18:56:54.510Z,48.50
2018-05-07T18:59:23.201Z,48.80
2018-05-07T19:01:51.710Z,49.00
2018-05-07T19:04:21.880Z,49.10
2018-05-07T19:06:50.588Z,49.80
2018-05-07T19:09:20.202Z,49.90
2018-05-07T19:11:50.221Z,50.30
2018-05-07T19:17:08.398Z,51.10
2018-05-07T19:19:53.437Z,51.00
2018-05-07T19:22:24.540Z,51.50
2018-05-07T19:28:11.243Z,52.00
2018-05-07T19:30:43.430Z,52.50
2018-05-07T19:33:16.292Z,52.60
2018-05-07T19:35:47.803Z,52.60
2018-05-07T19:38:17.199Z,53.10
2018-05-07T19:40:48.010Z,53.10
2018-05-07T19:43:17.563Z,53.60
2018-05-07T19:45:46.326Z,54.10
2018-05-07T19:48:15.796Z,53.90
2018-05-07T19:50:43.878Z,54.30
2018-05-07T19:53:14.090Z,55.30
2018-05-07T19:55:44.261Z,55.20
2018-05-07T19:58:14.010Z,55.50
2018-05-07T20:00:42.721Z,55.70
2018-05-07T20:03:12.668Z,56.00
2018-05-07T20:05:41.447Z,56.00
2018-05-07T20:08:10.161Z,56.30
2018-05-07T20:10:39.565Z,56.50
2018-05-07T20:13:09.528Z,56.90
2018-05-07T20:15:40.101Z,57.70
2018-05-07T20:18:08.802Z,57.50
2018-05-07T20:20:37.592Z,57.80
2018-05-07T20:23:07.168Z,58.10
2018-05-07T20:25:35.888Z,58.70
2018-05-07T20:28:04.993Z,58.50
2018-05-07T20:30:33.731Z,59.30
2018-05-07T20:33:03.226Z,59.40
2018-05-07T20:35:32.130Z,60.10
2018-05-07T20:38:00.837Z,60.40
2018-05-07T20:40:29.608Z,60.70
2018-05-07T20:42:58.453Z,61.60
2018-05-07T20:45:27.762Z,61.90
2018-05-07T20:47:56.587Z,62.20
2018-05-07T20:50:25.085Z,62.80
2018-05-07T20:52:53.804Z,63.40
2018-05-07T20:55:22.567Z,63.40
2018-05-07T20:57:50.912Z,64.60
2018-05-07T21:00:20.758Z,65.20
2018-05-07T21:02:49.458Z,66.20
2018-05-07T21:05:18.203Z,66.10
2018-05-07T21:07:47.730Z,67.90
2018-05-07T21:10:16.500Z,67.90
2018-05-07T21:12:46.006Z,69.10
2018-05-07T21:15:15.498Z,69.10
2018-05-07T21:17:44.218Z,69.10
2018-05-07T21:20:12.935Z,69.60
2018-05-07T21:22:41.414Z,71.10
2018-05-07T21:25:10.722Z,72.90
2018-05-07T21:27:39.131Z,72.90
2018-05-07T21:30:08.759Z,75.10
2018-05-07T21:32:38.248Z,78.60
2018-05-07T21:35:08.748Z,78.60
2018-05-07T21:37:37.850Z,81.50
2018-05-07T21:40:07.150Z,83.50
2018-05-07T21:42:35.890Z,84.10
2018-05-07T21:45:03.951Z,85.50
2018-05-07T21:47:33.437Z,90.00
2018-05-07T21:50:02.178Z,90.00
2018-05-07T21:52:30.928Z,90.30
2018-05-07T21:55:00.413Z,90.90
2018-05-07T21:57:29.130Z,90.90
2018-05-07T21:59:58.867Z,91.80
2018-05-07T22:02:27.574Z,91.80
2018-05-07T22:04:56.273Z,92.40
2018-05-07T22:07:24.809Z,93.00
2018-05-07T22:09:54.286Z,93.60
2018-05-07T22:12:23.088Z,93.60
2018-05-07T22:14:51.737Z,94.30
2018-05-07T22:17:20.451Z,95.00
2018-05-07T22:19:49.150Z,95.00
2018-05-07T22:22:19.300Z,96.30
2018-05-07T22:24:47.706Z,96.40
2018-05-07T22:27:16.422Z,97.20
2018-05-07T22:29:45.155Z,97.90
2018-05-07T22:32:13.881Z,97.80
2018-05-07T22:34:42.757Z,98.80
2018-05-07T22:37:11.657Z,99.10
2018-05-07T22:39:40.361Z,99.60
2018-05-07T22:42:09.178Z,99.70
2018-05-07T22:44:37.887Z,99.90
2018-05-07T22:47:06.605Z,99.90
2018-05-07T22:49:35.313Z,99.90
2018-05-07T22:52:03.747Z,99.90
2018-05-07T22:54:32.640Z,99.90
2018-05-07T22:57:01.370Z,99.90
2018-05-07T22:59:30.066Z,99.90
2018-05-07T23:01:58.805Z,99.90
2018-05-07T23:04:27.496Z,99.90
2018-05-07T23:06:56.225Z,99.90
2018-05-07T23:09:24.935Z,99.90
2018-05-07T23:11:54.356Z,99.90
2018-05-07T23:14:23.238Z,99.90
2018-05-07T23:16:52.492Z,99.90
2018-05-07T23:19:21.201Z,99.90
2018-05-07T23:21:49.925Z,99.90
2018-05-07T23:24:20.283Z,99.90
2018-05-07T23:26:49.010Z,99.90
2018-05-07T23:29:17.723Z,99.90
2018-05-07T23:31:47.195Z,99.90
2018-05-07T23:34:15.910Z,99.90
2018-05-07T23:36:45.404Z,99.90
2018-05-07T23:39:14.899Z,99.90
2018-05-07T23:41:43.698Z,99.90
2018-05-07T23:44:14.074Z,99.90
2018-05-07T23:46:42.794Z,99.90
2018-05-07T23:49:11.502Z,99.90
2018-05-07T23:51:40.986Z,99.90
2018-05-07T23:54:09.697Z,99.90
2018-05-07T23:56:38.420Z,99.90
2018-05-07T23:59:07.168Z,99.90
